NCAR-RAP Real-Time Weather Data

Output produced by METARs form (06 May 2021  15:34 UTC)
found at http://weather.rap.ucar.edu/surface/
 
KFNT 061453Z 00000KT 10SM OVC070 09/02 A3014 RMK AO2 SLP208 T00940022 50003
KFNT 061353Z 00000KT 10SM OVC070 09/02 A3014 RMK AO2 SLP209 T00890017
KFNT 061253Z 00000KT 10SM OVC085 08/02 A3014 RMK AO2 SLP208 T00830017
KFNT 061153Z 00000KT 10SM CLR 05/02 A3013 RMK AO2 SLP206 T00500022 10050 21006 57001
KFNT 061053Z 18003KT 10SM BKN100 02/00 A3013 RMK AO2 SLP206 T00170000
KFNT 060953Z 00000KT 10SM OVC110 01/M01 A3013 RMK AO2 SLP207 T00061006
KFNT 060853Z AUTO 00000KT 10SM FEW100 00/M02 A3013 RMK AO2 SLP208 T00001017 58002
KFNT 060753Z AUTO 17003KT 10SM CLR 01/M02 A3014 RMK AO2 SLP211 T00111017
KFNT 060653Z AUTO 00000KT 10SM CLR 00/M02 A3013 RMK AO2 SLP209 T00001022
KFNT 060553Z AUTO 28004KT 10SM CLR 04/M02 A3014 RMK AO2 SLP209 T00441022 10117 20039 50003
KFNT 060453Z AUTO 33003KT 10SM CLR 05/M01 A3014 RMK AO2 SLP210 T00501011 401390044
KFNT 060353Z AUTO 33004KT 10SM CLR 07/M01 A3014 RMK AO2 SLP209 T00671011
KFNT 060253Z 34005KT 10SM CLR 08/M01 A3013 RMK AO2 SLP206 T00781006 51021
KFNT 060153Z 32006KT 10SM FEW060 09/01 A3011 RMK AO2 SLP202 T00890006
KFNT 060053Z 31004KT 10SM CLR 10/01 A3009 RMK AO2 SLP192 T01000006
KFNT 052353Z 31007KT 10SM CLR 12/01 A3006 RMK AO2 SLP184 T01170006 10139 20094 51008